PAGY/SGY METAR and TAF weather

Enter ICAO airport designator
Station Type Date Time Source
PAGY METAR 2018/12/11 17:53 UTC NOAA

PAGY 111753Z AUTO 00000KT 4SM BR OVC009 01/01 A2883 RMK UPE08 CIG 004V009 SLP762 P0000 60001 T00110006 10022 20011 53003 TSNO VIA AUTODIAL


Station Type Date Time Source
PAGY Decoded METAR 2018/12/11 17:53 UTC NOAA

SKAGWAY AIRPORT, AK, United States (PAGY) 59-28N 135-19W 5M
Dec 11, 2018 - 12:53 PM EST / 2018.12.11 1753 UTC
Wind: Calm:0
Visibility: 4 mile(s):0
Sky conditions: overcast
Weather: mist
Precipitation last hour: A trace
Temperature: 34.0 F (1.1 C)
Dew Point: 33.1 F (0.6 C)
Relative Humidity: 96%
Pressure (altimeter): 28.83 in. Hg (976 hPa)
Pressure tendency: 0.01 inches (0.3 hPa) higher than three hours ago
ob: PAGY 111753Z AUTO 00000KT 4SM BR OVC009 01/01 A2883 RMK UPE08 CIG 004V009 SLP762 P0000 60001 T00110006 10022 20011 53003 TSNO VIA AUTODIAL
cycle: 18

Station Type Date Time Source
PAGY TAF 2018/12/11 18:42 UTC NOAA

TAF PAGY 111740Z 1118/1218 VRB04KT 4SM -SHRASN FEW006 OVC015
FM112100 21007KT 6SM -SHRASN OVC020
FM120000 21012G20KT P6SM -SHRASN OVC030
FM120600 20020G32KT P6SM VCSH SCT025 OVC050
AMD LTD TO CLD VIS AND WIND


Example: see airport list